sensor_id;sensor_type;location;lat;lon;timestamp;temperature;humidity
75786;DHT22;64402;44.708;37.644;2024-03-22T00:01:56;9.26;72.86
75786;DHT22;64402;44.708;37.644;2024-03-22T00:04:22;9.23;72.59
75786;DHT22;64402;44.708;37.644;2024-03-22T00:06:50;9.23;72.66
75786;DHT22;64402;44.708;37.644;2024-03-22T00:09:16;9.23;72.53
75786;DHT22;64402;44.708;37.644;2024-03-22T00:11:43;9.21;72.71
75786;DHT22;64402;44.708;37.644;2024-03-22T00:14:11;9.21;72.60
75786;DHT22;64402;44.708;37.644;2024-03-22T00:16:37;9.22;72.35
75786;DHT22;64402;44.708;37.644;2024-03-22T00:19:04;9.22;72.37
75786;DHT22;64402;44.708;37.644;2024-03-22T00:21:30;9.22;72.30
75786;DHT22;64402;44.708;37.644;2024-03-22T00:23:57;9.20;72.17
75786;DHT22;64402;44.708;37.644;2024-03-22T00:26:24;9.21;72.61
75786;DHT22;64402;44.708;37.644;2024-03-22T00:28:50;9.22;72.24
75786;DHT22;64402;44.708;37.644;2024-03-22T00:31:17;9.21;72.07
75786;DHT22;64402;44.708;37.644;2024-03-22T00:33:46;9.17;72.04
75786;DHT22;64402;44.708;37.644;2024-03-22T00:36:12;9.17;72.05
75786;DHT22;64402;44.708;37.644;2024-03-22T00:38:38;9.16;72.20
75786;DHT22;64402;44.708;37.644;2024-03-22T00:41:04;9.17;72.01
75786;DHT22;64402;44.708;37.644;2024-03-22T00:43:30;9.12;71.94
75786;DHT22;64402;44.708;37.644;2024-03-22T00:45:57;9.07;72.22
75786;DHT22;64402;44.708;37.644;2024-03-22T00:48:24;9.08;72.05
75786;DHT22;64402;44.708;37.644;2024-03-22T00:50:50;9.05;72.33
75786;DHT22;64402;44.708;37.644;2024-03-22T00:53:17;8.97;72.09
75786;DHT22;64402;44.708;37.644;2024-03-22T00:55:43;8.89;72.33
75786;DHT22;64402;44.708;37.644;2024-03-22T00:58:09;8.89;72.56
75786;DHT22;64402;44.708;37.644;2024-03-22T01:00:35;8.88;72.69
75786;DHT22;64402;44.708;37.644;2024-03-22T01:03:03;8.85;72.48
75786;DHT22;64402;44.708;37.644;2024-03-22T01:05:29;8.85;72.46
75786;DHT22;64402;44.708;37.644;2024-03-22T01:07:56;8.79;72.37
75786;DHT22;64402;44.708;37.644;2024-03-22T01:10:22;8.79;72.26
75786;DHT22;64402;44.708;37.644;2024-03-22T01:12:48;8.73;72.22
75786;DHT22;64402;44.708;37.644;2024-03-22T01:15:14;8.75;72.40
75786;DHT22;64402;44.708;37.644;2024-03-22T01:17:40;8.79;71.96
75786;DHT22;64402;44.708;37.644;2024-03-22T01:20:07;8.80;72.09
75786;DHT22;64402;44.708;37.644;2024-03-22T01:22:33;8.76;71.77
75786;DHT22;64402;44.708;37.644;2024-03-22T01:24:59;8.72;71.96
75786;DHT22;64402;44.708;37.644;2024-03-22T01:27:25;8.72;71.58
75786;DHT22;64402;44.708;37.644;2024-03-22T01:29:52;8.66;71.98
75786;DHT22;64402;44.708;37.644;2024-03-22T01:32:18;8.59;71.73
75786;DHT22;64402;44.708;37.644;2024-03-22T01:34:44;8.50;71.85
75786;DHT22;64402;44.708;37.644;2024-03-22T01:37:10;8.49;71.94
75786;DHT22;64402;44.708;37.644;2024-03-22T01:39:36;8.53;71.81
75786;DHT22;64402;44.708;37.644;2024-03-22T01:42:02;8.51;71.77
75786;DHT22;64402;44.708;37.644;2024-03-22T01:44:30;8.50;71.75
75786;DHT22;64402;44.708;37.644;2024-03-22T01:46:57;8.49;71.56
75786;DHT22;64402;44.708;37.644;2024-03-22T01:49:25;8.49;71.55
75786;DHT22;64402;44.708;37.644;2024-03-22T01:51:52;8.52;71.50
75786;DHT22;64402;44.708;37.644;2024-03-22T01:54:20;8.49;71.61
75786;DHT22;64402;44.708;37.644;2024-03-22T01:56:46;8.35;71.13
75786;DHT22;64402;44.708;37.644;2024-03-22T01:59:13;8.24;71.33
75786;DHT22;64402;44.708;37.644;2024-03-22T02:01:39;8.20;71.94
75786;DHT22;64402;44.708;37.644;2024-03-22T02:04:06;8.18;71.28
75786;DHT22;64402;44.708;37.644;2024-03-22T02:06:33;8.19;71.74
75786;DHT22;64402;44.708;37.644;2024-03-22T02:09:00;8.16;71.46
75786;DHT22;64402;44.708;37.644;2024-03-22T02:11:26;8.14;71.48
75786;DHT22;64402;44.708;37.644;2024-03-22T02:13:53;8.14;71.42
75786;DHT22;64402;44.708;37.644;2024-03-22T02:16:19;8.09;71.28
75786;DHT22;64402;44.708;37.644;2024-03-22T02:18:45;8.09;71.22
75786;DHT22;64402;44.708;37.644;2024-03-22T02:21:12;8.05;71.08
75786;DHT22;64402;44.708;37.644;2024-03-22T02:23:39;8.02;71.37
75786;DHT22;64402;44.708;37.644;2024-03-22T02:26:06;7.99;71.10
75786;DHT22;64402;44.708;37.644;2024-03-22T02:28:34;7.99;71.48
75786;DHT22;64402;44.708;37.644;2024-03-22T02:31:02;7.93;71.20
75786;DHT22;64402;44.708;37.644;2024-03-22T02:33:28;7.93;71.35
75786;DHT22;64402;44.708;37.644;2024-03-22T02:35:55;7.87;71.27
75786;DHT22;64402;44.708;37.644;2024-03-22T02:38:22;7.86;71.38
75786;DHT22;64402;44.708;37.644;2024-03-22T02:40:49;7.85;71.42
75786;DHT22;64402;44.708;37.644;2024-03-22T02:43:15;7.91;71.35
75786;DHT22;64402;44.708;37.644;2024-03-22T02:45:45;7.90;70.92
75786;DHT22;64402;44.708;37.644;2024-03-22T02:48:12;7.96;71.53
75786;DHT22;64402;44.708;37.644;2024-03-22T02:50:38;7.99;71.54
75786;DHT22;64402;44.708;37.644;2024-03-22T02:53:05;7.94;71.38
75786;DHT22;64402;44.708;37.644;2024-03-22T02:55:40;7.92;71.42
75786;DHT22;64402;44.708;37.644;2024-03-22T02:58:07;7.94;71.55
75786;DHT22;64402;44.708;37.644;2024-03-22T03:00:39;7.91;71.32
75786;DHT22;64402;44.708;37.644;2024-03-22T03:03:06;7.93;71.47
75786;DHT22;64402;44.708;37.644;2024-03-22T03:05:33;7.98;71.58
75786;DHT22;64402;44.708;37.644;2024-03-22T03:07:59;7.96;71.35
75786;DHT22;64402;44.708;37.644;2024-03-22T03:10:26;7.89;71.34
75786;DHT22;64402;44.708;37.644;2024-03-22T03:12:54;7.84;71.74
75786;DHT22;64402;44.708;37.644;2024-03-22T03:15:21;7.83;72.09
75786;DHT22;64402;44.708;37.644;2024-03-22T03:17:47;7.79;72.08
75786;DHT22;64402;44.708;37.644;2024-03-22T03:20:13;7.76;71.92
75786;DHT22;64402;44.708;37.644;2024-03-22T03:22:40;7.71;72.13
75786;DHT22;64402;44.708;37.644;2024-03-22T03:25:06;7.64;71.93
75786;DHT22;64402;44.708;37.644;2024-03-22T03:27:33;7.64;71.70
75786;DHT22;64402;44.708;37.644;2024-03-22T03:30:00;7.64;71.71
75786;DHT22;64402;44.708;37.644;2024-03-22T03:32:27;7.62;71.92
75786;DHT22;64402;44.708;37.644;2024-03-22T03:34:54;7.61;72.21
75786;DHT22;64402;44.708;37.644;2024-03-22T03:37:20;7.56;72.13
75786;DHT22;64402;44.708;37.644;2024-03-22T03:39:46;7.47;72.99
75786;DHT22;64402;44.708;37.644;2024-03-22T03:42:12;7.42;73.22
75786;DHT22;64402;44.708;37.644;2024-03-22T03:44:38;7.37;73.36
75786;DHT22;64402;44.708;37.644;2024-03-22T03:47:05;7.30;74.18
75786;DHT22;64402;44.708;37.644;2024-03-22T03:49:31;7.29;74.47
75786;DHT22;64402;44.708;37.644;2024-03-22T03:51:57;7.31;74.64
75786;DHT22;64402;44.708;37.644;2024-03-22T03:54:23;7.33;75.12
75786;DHT22;64402;44.708;37.644;2024-03-22T03:56:50;7.38;75.27
75786;DHT22;64402;44.708;37.644;2024-03-22T03:59:18;7.35;74.90
75786;DHT22;64402;44.708;37.644;2024-03-22T04:01:45;7.32;74.30
75786;DHT22;64402;44.708;37.644;2024-03-22T04:04:11;7.27;74.03
75786;DHT22;64402;44.708;37.644;2024-03-22T04:06:38;7.22;74.34
75786;DHT22;64402;44.708;37.644;2024-03-22T04:09:04;7.17;74.23
75786;DHT22;64402;44.708;37.644;2024-03-22T04:11:31;7.15;74.18
75786;DHT22;64402;44.708;37.644;2024-03-22T04:13:57;7.12;74.35
75786;DHT22;64402;44.708;37.644;2024-03-22T04:16:23;7.11;74.44
75786;DHT22;64402;44.708;37.644;2024-03-22T04:18:50;7.07;74.61
75786;DHT22;64402;44.708;37.644;2024-03-22T04:21:16;6.99;74.75
75786;DHT22;64402;44.708;37.644;2024-03-22T04:23:42;6.96;74.73
75786;DHT22;64402;44.708;37.644;2024-03-22T04:26:09;6.90;74.67
75786;DHT22;64402;44.708;37.644;2024-03-22T04:28:35;6.85;75.56
75786;DHT22;64402;44.708;37.644;2024-03-22T04:31:04;6.85;75.62
75786;DHT22;64402;44.708;37.644;2024-03-22T04:33:32;6.85;75.64
75786;DHT22;64402;44.708;37.644;2024-03-22T04:35:59;6.87;75.77
75786;DHT22;64402;44.708;37.644;2024-03-22T04:38:27;6.84;75.57
75786;DHT22;64402;44.708;37.644;2024-03-22T04:40:54;6.83;75.28
75786;DHT22;64402;44.708;37.644;2024-03-22T04:43:24;6.84;75.78
75786;DHT22;64402;44.708;37.644;2024-03-22T04:45:51;6.88;75.47
75786;DHT22;64402;44.708;37.644;2024-03-22T04:48:21;6.84;75.57
75786;DHT22;64402;44.708;37.644;2024-03-22T04:50:48;6.85;75.92
75786;DHT22;64402;44.708;37.644;2024-03-22T04:53:18;6.89;75.09
75786;DHT22;64402;44.708;37.644;2024-03-22T04:55:47;6.82;75.79
75786;DHT22;64402;44.708;37.644;2024-03-22T04:58:14;6.90;76.08
75786;DHT22;64402;44.708;37.644;2024-03-22T05:00:44;6.86;75.50
75786;DHT22;64402;44.708;37.644;2024-03-22T05:03:11;6.88;76.06
75786;DHT22;64402;44.708;37.644;2024-03-22T05:05:38;6.87;75.94
75786;DHT22;64402;44.708;37.644;2024-03-22T05:08:05;6.91;76.00
75786;DHT22;64402;44.708;37.644;2024-03-22T05:10:32;6.90;76.18
75786;DHT22;64402;44.708;37.644;2024-03-22T05:12:58;6.96;76.79
75786;DHT22;64402;44.708;37.644;2024-03-22T05:15:24;6.93;76.24
75786;DHT22;64402;44.708;37.644;2024-03-22T05:17:56;6.91;76.10
75786;DHT22;64402;44.708;37.644;2024-03-22T05:20:22;6.86;76.16
75786;DHT22;64402;44.708;37.644;2024-03-22T05:22:49;6.84;76.24
75786;DHT22;64402;44.708;37.644;2024-03-22T05:25:15;6.81;76.06
75786;DHT22;64402;44.708;37.644;2024-03-22T05:27:42;6.79;75.91
75786;DHT22;64402;44.708;37.644;2024-03-22T05:30:12;6.85;76.21
75786;DHT22;64402;44.708;37.644;2024-03-22T05:32:39;6.90;75.84
75786;DHT22;64402;44.708;37.644;2024-03-22T05:35:06;6.91;76.41
75786;DHT22;64402;44.708;37.644;2024-03-22T05:37:33;6.97;76.16
75786;DHT22;64402;44.708;37.644;2024-03-22T05:40:00;7.02;76.00
75786;DHT22;64402;44.708;37.644;2024-03-22T05:42:26;7.02;75.63
75786;DHT22;64402;44.708;37.644;2024-03-22T05:44:55;7.09;75.99
75786;DHT22;64402;44.708;37.644;2024-03-22T05:47:21;7.17;76.10
75786;DHT22;64402;44.708;37.644;2024-03-22T05:49:47;7.24;75.81
75786;DHT22;64402;44.708;37.644;2024-03-22T05:52:14;7.22;75.15
75786;DHT22;64402;44.708;37.644;2024-03-22T05:54:40;7.22;75.35
75786;DHT22;64402;44.708;37.644;2024-03-22T05:57:07;7.23;75.50
75786;DHT22;64402;44.708;37.644;2024-03-22T05:59:33;7.27;75.71
75786;DHT22;64402;44.708;37.644;2024-03-22T06:02:00;7.30;75.64
75786;DHT22;64402;44.708;37.644;2024-03-22T06:04:26;7.25;75.84
75786;DHT22;64402;44.708;37.644;2024-03-22T06:06:53;7.23;75.61
75786;DHT22;64402;44.708;37.644;2024-03-22T06:09:20;7.18;75.66
75786;DHT22;64402;44.708;37.644;2024-03-22T06:12:04;7.16;75.85
75786;DHT22;64402;44.708;37.644;2024-03-22T06:14:31;7.18;76.40
75786;DHT22;64402;44.708;37.644;2024-03-22T06:16:57;7.20;76.15
75786;DHT22;64402;44.708;37.644;2024-03-22T06:19:24;7.27;76.05
75786;DHT22;64402;44.708;37.644;2024-03-22T06:21:50;7.28;75.33
75786;DHT22;64402;44.708;37.644;2024-03-22T06:24:16;7.22;74.71
75786;DHT22;64402;44.708;37.644;2024-03-22T06:26:42;7.28;75.43
75786;DHT22;64402;44.708;37.644;2024-03-22T06:29:08;7.32;75.59
75786;DHT22;64402;44.708;37.644;2024-03-22T06:31:35;7.41;75.42
75786;DHT22;64402;44.708;37.644;2024-03-22T06:34:01;7.41;74.60
75786;DHT22;64402;44.708;37.644;2024-03-22T06:36:31;7.40;74.31
75786;DHT22;64402;44.708;37.644;2024-03-22T06:39:00;7.43;74.92
75786;DHT22;64402;44.708;37.644;2024-03-22T06:41:27;7.48;74.92
75786;DHT22;64402;44.708;37.644;2024-03-22T06:43:54;7.56;74.80
75786;DHT22;64402;44.708;37.644;2024-03-22T06:46:20;7.58;73.93
75786;DHT22;64402;44.708;37.644;2024-03-22T06:48:46;7.59;75.39
75786;DHT22;64402;44.708;37.644;2024-03-22T06:51:12;7.55;75.18
75786;DHT22;64402;44.708;37.644;2024-03-22T06:53:39;7.58;75.44
75786;DHT22;64402;44.708;37.644;2024-03-22T06:56:06;7.61;75.10
75786;DHT22;64402;44.708;37.644;2024-03-22T06:58:38;7.55;74.78
75786;DHT22;64402;44.708;37.644;2024-03-22T07:01:05;7.55;74.74
75786;DHT22;64402;44.708;37.644;2024-03-22T07:03:31;7.55;75.25
75786;DHT22;64402;44.708;37.644;2024-03-22T07:05:57;7.52;75.56
75786;DHT22;64402;44.708;37.644;2024-03-22T07:08:24;7.58;75.31
75786;DHT22;64402;44.708;37.644;2024-03-22T07:10:51;7.63;74.92
75786;DHT22;64402;44.708;37.644;2024-03-22T07:13:19;7.57;75.05
75786;DHT22;64402;44.708;37.644;2024-03-22T07:15:46;7.55;75.54
75786;DHT22;64402;44.708;37.644;2024-03-22T07:18:14;7.59;75.74
75786;DHT22;64402;44.708;37.644;2024-03-22T07:20:41;7.60;76.52
75786;DHT22;64402;44.708;37.644;2024-03-22T07:23:08;7.61;76.16
75786;DHT22;64402;44.708;37.644;2024-03-22T07:25:34;7.61;76.00
75786;DHT22;64402;44.708;37.644;2024-03-22T07:28:01;7.60;75.97
75786;DHT22;64402;44.708;37.644;2024-03-22T07:30:27;7.62;75.81
75786;DHT22;64402;44.708;37.644;2024-03-22T07:32:53;7.68;76.17
75786;DHT22;64402;44.708;37.644;2024-03-22T07:35:19;7.75;76.17
75786;DHT22;64402;44.708;37.644;2024-03-22T07:37:46;7.79;76.28
75786;DHT22;64402;44.708;37.644;2024-03-22T07:40:12;7.83;75.73
75786;DHT22;64402;44.708;37.644;2024-03-22T07:42:38;7.90;75.63
75786;DHT22;64402;44.708;37.644;2024-03-22T07:45:04;8.04;75.48
75786;DHT22;64402;44.708;37.644;2024-03-22T07:47:31;8.19;75.47
75786;DHT22;64402;44.708;37.644;2024-03-22T07:49:57;8.34;74.52
75786;DHT22;64402;44.708;37.644;2024-03-22T07:52:24;8.43;74.35
75786;DHT22;64402;44.708;37.644;2024-03-22T07:54:50;8.55;74.60
75786;DHT22;64402;44.708;37.644;2024-03-22T07:57:16;8.63;74.16
75786;DHT22;64402;44.708;37.644;2024-03-22T07:59:42;8.75;74.18
75786;DHT22;64402;44.708;37.644;2024-03-22T08:02:10;8.82;74.20
75786;DHT22;64402;44.708;37.644;2024-03-22T08:04:36;8.95;72.88
75786;DHT22;64402;44.708;37.644;2024-03-22T08:07:03;9.02;73.22
75786;DHT22;64402;44.708;37.644;2024-03-22T08:09:29;8.98;72.39
75786;DHT22;64402;44.708;37.644;2024-03-22T08:11:55;8.92;73.13
75786;DHT22;64402;44.708;37.644;2024-03-22T08:14:21;8.94;73.08
75786;DHT22;64402;44.708;37.644;2024-03-22T08:16:48;8.98;73.43
75786;DHT22;64402;44.708;37.644;2024-03-22T08:19:14;9.06;72.89
75786;DHT22;64402;44.708;37.644;2024-03-22T08:21:40;8.98;72.96
75786;DHT22;64402;44.708;37.644;2024-03-22T08:24:06;9.00;73.12
75786;DHT22;64402;44.708;37.644;2024-03-22T08:26:32;9.03;73.61
75786;DHT22;64402;44.708;37.644;2024-03-22T08:28:59;9.15;73.44
75786;DHT22;64402;44.708;37.644;2024-03-22T08:31:25;9.29;73.28
75786;DHT22;64402;44.708;37.644;2024-03-22T08:33:54;9.42;72.69
75786;DHT22;64402;44.708;37.644;2024-03-22T08:36:22;9.49;72.25
75786;DHT22;64402;44.708;37.644;2024-03-22T08:38:49;9.52;71.71
75786;DHT22;64402;44.708;37.644;2024-03-22T08:41:16;9.49;71.12
75786;DHT22;64402;44.708;37.644;2024-03-22T08:43:42;9.56;71.03
75786;DHT22;64402;44.708;37.644;2024-03-22T08:46:08;9.60;71.21
75786;DHT22;64402;44.708;37.644;2024-03-22T08:48:34;9.55;71.31
75786;DHT22;64402;44.708;37.644;2024-03-22T08:51:01;9.69;71.32
75786;DHT22;64402;44.708;37.644;2024-03-22T08:53:27;9.81;71.24
75786;DHT22;64402;44.708;37.644;2024-03-22T08:55:53;9.88;70.27
75786;DHT22;64402;44.708;37.644;2024-03-22T08:58:20;9.91;70.81
75786;DHT22;64402;44.708;37.644;2024-03-22T09:00:46;10.06;70.62
75786;DHT22;64402;44.708;37.644;2024-03-22T09:03:12;10.05;68.79
75786;DHT22;64402;44.708;37.644;2024-03-22T09:05:41;10.18;69.97
75786;DHT22;64402;44.708;37.644;2024-03-22T09:08:08;10.20;70.08
75786;DHT22;64402;44.708;37.644;2024-03-22T09:10:34;10.11;69.94
75786;DHT22;64402;44.708;37.644;2024-03-22T09:13:00;9.94;70.07
75786;DHT22;64402;44.708;37.644;2024-03-22T09:15:27;9.89;70.57
75786;DHT22;64402;44.708;37.644;2024-03-22T09:17:53;9.94;70.03
75786;DHT22;64402;44.708;37.644;2024-03-22T09:20:19;9.81;70.68
75786;DHT22;64402;44.708;37.644;2024-03-22T09:22:46;9.83;69.58
75786;DHT22;64402;44.708;37.644;2024-03-22T09:25:12;9.76;70.13
75786;DHT22;64402;44.708;37.644;2024-03-22T09:27:38;9.78;70.76
75786;DHT22;64402;44.708;37.644;2024-03-22T09:30:05;9.86;71.38
75786;DHT22;64402;44.708;37.644;2024-03-22T09:32:32;10.00;70.74
75786;DHT22;64402;44.708;37.644;2024-03-22T09:34:58;10.06;70.02
75786;DHT22;64402;44.708;37.644;2024-03-22T09:37:24;10.24;69.31
75786;DHT22;64402;44.708;37.644;2024-03-22T09:39:50;10.42;68.69
75786;DHT22;64402;44.708;37.644;2024-03-22T09:42:17;10.66;67.76
75786;DHT22;64402;44.708;37.644;2024-03-22T09:44:48;10.93;67.15
75786;DHT22;64402;44.708;37.644;2024-03-22T09:47:18;11.03;66.05
75786;DHT22;64402;44.708;37.644;2024-03-22T09:49:46;11.15;66.41
75786;DHT22;64402;44.708;37.644;2024-03-22T09:52:15;11.23;66.76
75786;DHT22;64402;44.708;37.644;2024-03-22T09:54:44;11.15;67.14
75786;DHT22;64402;44.708;37.644;2024-03-22T09:57:17;10.97;66.93
75786;DHT22;64402;44.708;37.644;2024-03-22T09:59:44;10.83;66.74
75786;DHT22;64402;44.708;37.644;2024-03-22T10:02:12;10.84;67.19
75786;DHT22;64402;44.708;37.644;2024-03-22T10:04:41;10.78;66.75
75786;DHT22;64402;44.708;37.644;2024-03-22T10:07:08;10.59;66.82
75786;DHT22;64402;44.708;37.644;2024-03-22T10:09:36;10.60;67.02
75786;DHT22;64402;44.708;37.644;2024-03-22T10:12:03;10.69;66.98
75786;DHT22;64402;44.708;37.644;2024-03-22T10:14:30;10.78;66.68
75786;DHT22;64402;44.708;37.644;2024-03-22T10:16:57;10.78;66.95
75786;DHT22;64402;44.708;37.644;2024-03-22T10:19:24;10.75;66.53
75786;DHT22;64402;44.708;37.644;2024-03-22T10:22:03;10.63;67.07
75786;DHT22;64402;44.708;37.644;2024-03-22T10:24:30;10.53;67.52
75786;DHT22;64402;44.708;37.644;2024-03-22T10:26:56;10.71;67.62
75786;DHT22;64402;44.708;37.644;2024-03-22T10:29:22;10.78;67.37
75786;DHT22;64402;44.708;37.644;2024-03-22T10:31:53;10.82;66.96
75786;DHT22;64402;44.708;37.644;2024-03-22T10:34:21;10.84;66.55
75786;DHT22;64402;44.708;37.644;2024-03-22T10:36:49;10.75;66.92
75786;DHT22;64402;44.708;37.644;2024-03-22T10:39:19;10.64;67.41
75786;DHT22;64402;44.708;37.644;2024-03-22T10:41:48;10.53;67.35
75786;DHT22;64402;44.708;37.644;2024-03-22T10:44:17;10.58;67.82
75786;DHT22;64402;44.708;37.644;2024-03-22T10:46:45;10.54;68.02
75786;DHT22;64402;44.708;37.644;2024-03-22T10:49:19;10.56;68.01
75786;DHT22;64402;44.708;37.644;2024-03-22T10:51:52;10.52;68.10
75786;DHT22;64402;44.708;37.644;2024-03-22T10:54:26;10.52;68.11
75786;DHT22;64402;44.708;37.644;2024-03-22T10:56:54;10.56;67.65
75786;DHT22;64402;44.708;37.644;2024-03-22T10:59:21;10.82;67.19
75786;DHT22;64402;44.708;37.644;2024-03-22T11:01:51;11.03;67.14
75786;DHT22;64402;44.708;37.644;2024-03-22T11:04:19;11.10;66.12
75786;DHT22;64402;44.708;37.644;2024-03-22T11:06:49;11.05;65.95
75786;DHT22;64402;44.708;37.644;2024-03-22T11:09:23;10.88;66.27
75786;DHT22;64402;44.708;37.644;2024-03-22T11:11:55;10.66;67.08
75786;DHT22;64402;44.708;37.644;2024-03-22T11:14:22;10.62;68.20
75786;DHT22;64402;44.708;37.644;2024-03-22T11:16:51;10.69;66.62
75786;DHT22;64402;44.708;37.644;2024-03-22T11:19:18;10.56;67.91
75786;DHT22;64402;44.708;37.644;2024-03-22T11:21:45;10.62;67.27
75786;DHT22;64402;44.708;37.644;2024-03-22T11:24:11;10.42;67.58
75786;DHT22;64402;44.708;37.644;2024-03-22T11:26:37;10.27;68.14
75786;DHT22;64402;44.708;37.644;2024-03-22T11:29:04;10.14;68.23
75786;DHT22;64402;44.708;37.644;2024-03-22T11:31:30;10.07;69.17
75786;DHT22;64402;44.708;37.644;2024-03-22T11:33:57;10.14;69.78
75786;DHT22;64402;44.708;37.644;2024-03-22T11:36:23;10.05;69.30
75786;DHT22;64402;44.708;37.644;2024-03-22T11:38:49;9.88;70.03
75786;DHT22;64402;44.708;37.644;2024-03-22T11:41:20;9.77;69.90
75786;DHT22;64402;44.708;37.644;2024-03-22T11:43:47;9.74;70.07
75786;DHT22;64402;44.708;37.644;2024-03-22T11:46:15;9.74;69.74
75786;DHT22;64402;44.708;37.644;2024-03-22T11:48:42;9.92;69.62
75786;DHT22;64402;44.708;37.644;2024-03-22T11:51:10;9.91;69.74
75786;DHT22;64402;44.708;37.644;2024-03-22T11:53:36;9.94;69.63
75786;DHT22;64402;44.708;37.644;2024-03-22T11:56:04;9.93;69.64
75786;DHT22;64402;44.708;37.644;2024-03-22T11:58:30;9.83;69.29
75786;DHT22;64402;44.708;37.644;2024-03-22T12:00:59;9.84;69.55
75786;DHT22;64402;44.708;37.644;2024-03-22T12:03:25;9.75;69.14
75786;DHT22;64402;44.708;37.644;2024-03-22T12:05:54;9.60;69.24
75786;DHT22;64402;44.708;37.644;2024-03-22T12:08:20;9.55;70.23
75786;DHT22;64402;44.708;37.644;2024-03-22T12:10:47;9.48;70.10
75786;DHT22;64402;44.708;37.644;2024-03-22T12:13:13;9.52;70.25
75786;DHT22;64402;44.708;37.644;2024-03-22T12:15:39;9.52;69.96
75786;DHT22;64402;44.708;37.644;2024-03-22T12:18:07;9.50;70.35
75786;DHT22;64402;44.708;37.644;2024-03-22T12:20:34;9.36;69.82
75786;DHT22;64402;44.708;37.644;2024-03-22T12:23:00;9.18;71.04
75786;DHT22;64402;44.708;37.644;2024-03-22T12:25:26;9.04;72.06
75786;DHT22;64402;44.708;37.644;2024-03-22T12:27:52;9.01;72.09
75786;DHT22;64402;44.708;37.644;2024-03-22T12:30:19;8.93;72.64
75786;DHT22;64402;44.708;37.644;2024-03-22T12:32:45;8.91;72.80
75786;DHT22;64402;44.708;37.644;2024-03-22T12:35:11;8.88;72.90
75786;DHT22;64402;44.708;37.644;2024-03-22T12:37:37;8.81;72.90
75786;DHT22;64402;44.708;37.644;2024-03-22T12:40:04;8.73;73.31
75786;DHT22;64402;44.708;37.644;2024-03-22T12:42:34;8.63;73.66
75786;DHT22;64402;44.708;37.644;2024-03-22T12:45:00;8.60;74.02
75786;DHT22;64402;44.708;37.644;2024-03-22T12:47:27;8.61;73.72
75786;DHT22;64402;44.708;37.644;2024-03-22T12:49:53;8.58;73.67
75786;DHT22;64402;44.708;37.644;2024-03-22T12:52:19;8.57;73.42
75786;DHT22;64402;44.708;37.644;2024-03-22T12:54:46;8.48;73.36
75786;DHT22;64402;44.708;37.644;2024-03-22T12:57:12;8.47;73.18
75786;DHT22;64402;44.708;37.644;2024-03-22T12:59:38;8.49;73.65
75786;DHT22;64402;44.708;37.644;2024-03-22T13:02:04;8.49;73.54
75786;DHT22;64402;44.708;37.644;2024-03-22T13:04:49;8.52;73.40
75786;DHT22;64402;44.708;37.644;2024-03-22T13:07:17;8.55;73.23
75786;DHT22;64402;44.708;37.644;2024-03-22T13:09:43;8.52;73.07
75786;DHT22;64402;44.708;37.644;2024-03-22T13:12:10;8.48;72.94
75786;DHT22;64402;44.708;37.644;2024-03-22T13:14:36;8.47;72.96
75786;DHT22;64402;44.708;37.644;2024-03-22T13:17:02;8.50;73.24
75786;DHT22;64402;44.708;37.644;2024-03-22T13:19:28;8.49;72.78
75786;DHT22;64402;44.708;37.644;2024-03-22T13:21:55;8.45;72.84
75786;DHT22;64402;44.708;37.644;2024-03-22T13:24:21;8.42;73.02
75786;DHT22;64402;44.708;37.644;2024-03-22T13:26:47;8.41;73.02
75786;DHT22;64402;44.708;37.644;2024-03-22T13:29:14;8.47;73.35
75786;DHT22;64402;44.708;37.644;2024-03-22T13:31:40;8.45;72.91
75786;DHT22;64402;44.708;37.644;2024-03-22T13:34:06;8.43;72.66
75786;DHT22;64402;44.708;37.644;2024-03-22T13:36:33;8.38;72.67
75786;DHT22;64402;44.708;37.644;2024-03-22T13:39:03;8.42;72.50
75786;DHT22;64402;44.708;37.644;2024-03-22T13:41:30;8.50;72.80
75786;DHT22;64402;44.708;37.644;2024-03-22T13:46:41;8.49;72.26
75786;DHT22;64402;44.708;37.644;2024-03-22T13:49:17;8.50;72.21
75786;DHT22;64402;44.708;37.644;2024-03-22T13:51:44;8.44;72.44
75786;DHT22;64402;44.708;37.644;2024-03-22T13:54:12;8.34;72.63
75786;DHT22;64402;44.708;37.644;2024-03-22T13:56:38;8.35;72.80
75786;DHT22;64402;44.708;37.644;2024-03-22T13:59:05;8.35;72.81
75786;DHT22;64402;44.708;37.644;2024-03-22T14:01:35;8.36;73.03
75786;DHT22;64402;44.708;37.644;2024-03-22T14:04:05;8.37;73.11
75786;DHT22;64402;44.708;37.644;2024-03-22T14:06:32;8.47;72.43
75786;DHT22;64402;44.708;37.644;2024-03-22T14:08:59;8.45;72.49
75786;DHT22;64402;44.708;37.644;2024-03-22T14:11:30;8.45;72.32
75786;DHT22;64402;44.708;37.644;2024-03-22T14:13:59;8.43;72.65
75786;DHT22;64402;44.708;37.644;2024-03-22T14:16:26;8.42;72.45
75786;DHT22;64402;44.708;37.644;2024-03-22T14:18:52;8.42;72.59
75786;DHT22;64402;44.708;37.644;2024-03-22T14:21:19;8.39;72.60
75786;DHT22;64402;44.708;37.644;2024-03-22T14:23:49;8.39;72.45
75786;DHT22;64402;44.708;37.644;2024-03-22T14:26:16;8.35;72.38
75786;DHT22;64402;44.708;37.644;2024-03-22T14:28:46;8.34;72.99
75786;DHT22;64402;44.708;37.644;2024-03-22T14:31:13;8.33;72.90
75786;DHT22;64402;44.708;37.644;2024-03-22T14:33:40;8.30;72.63
75786;DHT22;64402;44.708;37.644;2024-03-22T14:36:07;8.26;73.10
75786;DHT22;64402;44.708;37.644;2024-03-22T14:38:35;8.21;73.39
75786;DHT22;64402;44.708;37.644;2024-03-22T14:41:02;8.16;73.39
75786;DHT22;64402;44.708;37.644;2024-03-22T14:43:29;8.15;73.61
75786;DHT22;64402;44.708;37.644;2024-03-22T14:46:01;8.07;73.68
75786;DHT22;64402;44.708;37.644;2024-03-22T14:48:29;8.13;73.84
75786;DHT22;64402;44.708;37.644;2024-03-22T14:50:56;8.09;73.67
75786;DHT22;64402;44.708;37.644;2024-03-22T14:53:22;8.04;74.07
75786;DHT22;64402;44.708;37.644;2024-03-22T14:56:07;7.99;73.96
75786;DHT22;64402;44.708;37.644;2024-03-22T14:58:34;7.97;74.26
75786;DHT22;64402;44.708;37.644;2024-03-22T15:01:02;7.89;74.22
75786;DHT22;64402;44.708;37.644;2024-03-22T15:03:29;7.85;74.03
75786;DHT22;64402;44.708;37.644;2024-03-22T15:05:57;7.82;74.38
75786;DHT22;64402;44.708;37.644;2024-03-22T15:08:23;7.79;74.43
75786;DHT22;64402;44.708;37.644;2024-03-22T15:10:49;7.79;74.14
75786;DHT22;64402;44.708;37.644;2024-03-22T15:13:17;7.79;74.35
75786;DHT22;64402;44.708;37.644;2024-03-22T15:15:55;7.78;74.33
75786;DHT22;64402;44.708;37.644;2024-03-22T15:18:22;7.76;73.98
75786;DHT22;64402;44.708;37.644;2024-03-22T15:20:48;7.78;74.06
75786;DHT22;64402;44.708;37.644;2024-03-22T15:23:15;7.75;74.20
75786;DHT22;64402;44.708;37.644;2024-03-22T15:25:42;7.78;73.78
75786;DHT22;64402;44.708;37.644;2024-03-22T15:28:12;7.74;73.75
75786;DHT22;64402;44.708;37.644;2024-03-22T15:30:39;7.69;74.09